Time,TemperatureF,DewpointF,PressureIn,WindDirection,WindDirectionDegrees,WindSpeedMPH,WindSpeedGustMPH,Humidity,HourlyPrecipIn,Conditions,Clouds,dailyrainin,SoftwareType,DateUTC
2013-04-27 00:05:00,39.3,27.0,30.39,ESE,117,0.0,0.0,61,0.00,,,0.00,weatherlink.com 1.10,2013-04-27 04:05:00,
2013-04-27 00:20:00,39.2,27.0,30.39,ESE,114,1.0,2.0,63,0.00,,,0.00,weatherlink.com 1.10,2013-04-27 04:20:00,
2013-04-27 00:35:00,38.6,28.0,30.38,ESE,115,0.0,0.0,65,0.00,,,0.00,weatherlink.com 1.10,2013-04-27 04:35:00,
2013-04-27 00:50:00,38.8,28.0,30.38,ESE,115,0.0,0.0,65,0.00,,,0.00,weatherlink.com 1.10,2013-04-27 04:50:00,
2013-04-27 01:05:00,38.7,28.0,30.38,ESE,113,0.0,0.0,66,0.00,,,0.00,weatherlink.com 1.10,2013-04-27 05:05:00,
2013-04-27 01:20:00,38.5,28.0,30.38,ESE,113,0.0,0.0,67,0.00,,,0.00,weatherlink.com 1.10,2013-04-27 05:20:00,
2013-04-27 01:35:00,37.7,28.0,30.38,ESE,113,0.0,0.0,69,0.00,,,0.00,weatherlink.com 1.10,2013-04-27 05:35:00,
2013-04-27 01:50:00,39.3,28.0,30.39,ESE,113,0.0,0.0,65,0.00,,,0.00,weatherlink.com 1.10,2013-04-27 05:50:00,
2013-04-27 02:05:00,38.5,28.0,30.38,ESE,113,0.0,0.0,67,0.00,,,0.00,weatherlink.com 1.10,2013-04-27 06:05:00,
2013-04-27 02:20:00,38.3,29.0,30.39,ENE,71,0.0,0.0,68,0.00,,,0.00,weatherlink.com 1.10,2013-04-27 06:20:00,
2013-04-27 02:35:00,37.9,28.0,30.38,ENE,71,0.0,0.0,68,0.00,,,0.00,weatherlink.com 1.10,2013-04-27 06:35:00,
2013-04-27 02:50:00,36.5,29.0,30.38,ENE,75,0.0,0.0,74,0.00,,,0.00,weatherlink.com 1.10,2013-04-27 06:50:00,
2013-04-27 03:05:00,36.4,29.0,30.38,ENE,77,0.0,0.0,74,0.00,,,0.00,weatherlink.com 1.10,2013-04-27 07:05:00,
2013-04-27 03:21:00,36.2,28.0,30.38,ENE,77,0.0,0.0,72,0.00,,,0.00,weatherlink.com 1.10,2013-04-27 07:21:00,
2013-04-27 03:35:00,36.2,27.0,30.38,East,87,0.0,0.0,69,0.00,,,0.00,weatherlink.com 1.10,2013-04-27 07:35:00,
2013-04-27 03:50:00,35.7,27.0,30.37,East,88,0.0,0.0,71,0.00,,,0.00,weatherlink.com 1.10,2013-04-27 07:50:00,
2013-04-27 04:06:00,35.7,27.0,30.37,East,88,0.0,0.0,71,0.00,,,0.00,weatherlink.com 1.10,2013-04-27 08:06:00,
2013-04-27 04:22:00,36.8,28.0,30.35,ESE,108,3.0,3.0,70,0.00,,,0.00,weatherlink.com 1.10,2013-04-27 08:22:00,
2013-04-27 04:35:00,38.0,27.0,30.35,ESE,115,2.0,4.0,66,0.00,,,0.00,weatherlink.com 1.10,2013-04-27 08:35:00,
2013-04-27 04:52:00,38.6,28.0,30.35,SE,133,2.0,4.0,65,0.00,,,0.00,weatherlink.com 1.10,2013-04-27 08:52:00,
2013-04-27 05:07:00,38.8,27.0,30.35,ESE,108,0.0,3.0,64,0.00,,,0.00,weatherlink.com 1.10,2013-04-27 09:07:00,
2013-04-27 05:21:00,38.2,27.0,30.36,ESE,105,0.0,0.0,64,0.00,,,0.00,weatherlink.com 1.10,2013-04-27 09:21:00,
2013-04-27 05:37:00,37.2,27.0,30.36,ESE,106,0.0,0.0,66,0.00,,,0.00,weatherlink.com 1.10,2013-04-27 09:37:00,
2013-04-27 05:52:00,36.1,28.0,30.36,ESE,106,0.0,0.0,71,0.00,,,0.00,weatherlink.com 1.10,2013-04-27 09:52:00,
2013-04-27 06:06:00,35.8,28.0,30.36,ESE,106,0.0,0.0,72,0.00,,,0.00,weatherlink.com 1.10,2013-04-27 10:06:00,
2013-04-27 06:21:00,35.7,27.0,30.36,East,99,0.0,0.0,72,0.00,,,0.00,weatherlink.com 1.10,2013-04-27 10:21:00,
2013-04-27 06:36:00,35.7,28.0,30.36,East,99,0.0,0.0,74,0.00,,,0.00,weatherlink.com 1.10,2013-04-27 10:36:00,
2013-04-27 06:51:00,36.9,29.0,30.36,SE,131,1.0,2.0,72,0.00,,,0.00,weatherlink.com 1.10,2013-04-27 10:51:00,
2013-04-27 07:06:00,38.5,29.0,30.35,ESE,117,0.0,0.0,69,0.00,,,0.00,weatherlink.com 1.10,2013-04-27 11:06:00,
2013-04-27 07:21:00,40.3,30.0,30.36,SE,141,0.0,0.0,68,0.00,,,0.00,weatherlink.com 1.10,2013-04-27 11:21:00,
2013-04-27 07:36:00,43.6,32.0,30.36,SSE,155,4.0,5.0,63,0.00,,,0.00,weatherlink.com 1.10,2013-04-27 11:36:00,
2013-04-27 07:51:00,45.5,32.0,30.36,South,190,4.0,7.0,59,0.00,,,0.00,weatherlink.com 1.10,2013-04-27 11:51:00,
2013-04-27 08:06:00,47.2,32.0,30.36,South,179,5.0,8.0,56,0.00,,,0.00,weatherlink.com 1.10,2013-04-27 12:06:00,
2013-04-27 08:22:00,49.0,33.0,30.36,SSE,156,3.0,6.0,54,0.00,,,0.00,weatherlink.com 1.10,2013-04-27 12:22:00,
2013-04-27 08:37:00,50.2,33.0,30.36,SSE,162,3.0,6.0,53,0.00,,,0.00,weatherlink.com 1.10,2013-04-27 12:37:00,
2013-04-27 08:52:00,51.7,33.0,30.36,East,98,1.0,3.0,50,0.00,,,0.00,weatherlink.com 1.10,2013-04-27 12:52:00,
2013-04-27 09:07:00,54.0,34.0,30.36,SE,129,3.0,5.0,48,0.00,,,0.00,weatherlink.com 1.10,2013-04-27 13:07:00,
2013-04-27 09:23:00,55.1,33.0,30.36,SE,145,4.0,6.0,44,0.00,,,0.00,weatherlink.com 1.10,2013-04-27 13:23:00,
2013-04-27 09:37:00,55.5,34.0,30.35,South,172,2.0,7.0,44,0.00,,,0.00,weatherlink.com 1.10,2013-04-27 13:37:00,
2013-04-27 09:52:00,56.2,34.0,30.35,SW,225,6.0,10.0,44,0.00,,,0.00,weatherlink.com 1.10,2013-04-27 13:52:00,
2013-04-27 10:07:00,57.5,34.0,30.35,SSW,203,4.0,9.0,41,0.00,,,0.00,weatherlink.com 1.10,2013-04-27 14:07:00,
2013-04-27 10:22:00,58.2,34.0,30.35,SW,226,8.0,10.0,40,0.00,,,0.00,weatherlink.com 1.10,2013-04-27 14:22:00,
2013-04-27 10:37:00,58.7,34.0,30.35,SSW,201,6.0,10.0,39,0.00,,,0.00,weatherlink.com 1.10,2013-04-27 14:37:00,
2013-04-27 10:52:00,59.1,34.0,30.34,West,259,3.0,9.0,39,0.00,,,0.00,weatherlink.com 1.10,2013-04-27 14:52:00,
2013-04-27 11:07:00,59.7,34.0,30.34,SSW,198,4.0,9.0,38,0.00,,,0.00,weatherlink.com 1.10,2013-04-27 15:07:00,
2013-04-27 11:22:00,60.0,33.0,30.34,SW,214,9.0,11.0,36,0.00,,,0.00,weatherlink.com 1.10,2013-04-27 15:22:00,
2013-04-27 11:37:00,60.0,34.0,30.34,West,271,7.0,10.0,38,0.00,,,0.00,weatherlink.com 1.10,2013-04-27 15:37:00,
2013-04-27 11:52:00,60.7,35.0,30.34,WSW,238,6.0,9.0,39,0.00,,,0.00,weatherlink.com 1.10,2013-04-27 15:52:00,
2013-04-27 12:07:00,61.4,33.0,30.33,SSE,158,1.0,9.0,35,0.00,,,0.00,weatherlink.com 1.10,2013-04-27 16:07:00,
2013-04-27 12:22:00,61.8,34.0,30.32,SSW,205,6.0,10.0,36,0.00,,,0.00,weatherlink.com 1.10,2013-04-27 16:22:00,
2013-04-27 12:37:00,62.8,35.0,30.32,SE,138,5.0,6.0,35,0.00,,,0.00,weatherlink.com 1.10,2013-04-27 16:37:00,
2013-04-27 12:52:00,62.7,35.0,30.31,West,277,2.0,7.0,35,0.00,,,0.00,weatherlink.com 1.10,2013-04-27 16:52:00,
2013-04-27 13:08:00,64.0,36.0,30.30,SSE,164,3.0,8.0,35,0.00,,,0.00,weatherlink.com 1.10,2013-04-27 17:08:00,
2013-04-27 13:23:00,64.5,37.0,30.30,West,280,3.0,7.0,36,0.00,,,0.00,weatherlink.com 1.10,2013-04-27 17:23:00,
2013-04-27 13:38:00,64.4,35.0,30.29,SSW,205,2.0,8.0,34,0.00,,,0.00,weatherlink.com 1.10,2013-04-27 17:38:00,
2013-04-27 13:53:00,64.9,36.0,30.29,SSE,165,3.0,10.0,34,0.00,,,0.00,weatherlink.com 1.10,2013-04-27 17:53:00,
2013-04-27 14:08:00,65.4,36.0,30.28,SSE,149,7.0,10.0,34,0.00,,,0.00,weatherlink.com 1.10,2013-04-27 18:08:00,
2013-04-27 14:23:00,65.4,35.0,30.27,West,265,2.0,5.0,33,0.00,,,0.00,weatherlink.com 1.10,2013-04-27 18:23:00,
2013-04-27 14:38:00,65.3,35.0,30.27,NE,43,3.0,6.0,33,0.00,,,0.00,weatherlink.com 1.10,2013-04-27 18:38:00,
2013-04-27 14:53:00,66.5,38.0,30.26,SE,130,4.0,8.0,35,0.00,,,0.00,weatherlink.com 1.10,2013-04-27 18:53:00,
2013-04-27 15:08:00,67.0,36.0,30.26,SSW,208,3.0,8.0,32,0.00,,,0.00,weatherlink.com 1.10,2013-04-27 19:08:00,
2013-04-27 15:23:00,67.5,37.0,30.25,South,188,0.0,5.0,33,0.00,,,0.00,weatherlink.com 1.10,2013-04-27 19:23:00,
2013-04-27 15:38:00,67.5,37.0,30.24,WNW,285,5.0,6.0,32,0.00,,,0.00,weatherlink.com 1.10,2013-04-27 19:38:00,
2013-04-27 15:53:00,68.0,38.0,30.24,East,100,0.0,4.0,34,0.00,,,0.00,weatherlink.com 1.10,2013-04-27 19:53:00,
2013-04-27 16:08:00,68.6,34.0,30.24,SW,226,0.0,9.0,28,0.00,,,0.00,weatherlink.com 1.10,2013-04-27 20:08:00,
2013-04-27 16:23:00,68.9,35.0,30.23,SSE,148,4.0,7.0,29,0.00,,,0.00,weatherlink.com 1.10,2013-04-27 20:23:00,
2013-04-27 16:38:00,69.2,34.0,30.23,SE,129,3.0,6.0,27,0.00,,,0.00,weatherlink.com 1.10,2013-04-27 20:38:00,
2013-04-27 16:53:00,69.1,34.0,30.22,ENE,78,0.0,4.0,27,0.00,,,0.00,weatherlink.com 1.10,2013-04-27 20:53:00,
2013-04-27 17:08:00,69.4,33.0,30.22,WNW,291,5.0,7.0,26,0.00,,,0.00,weatherlink.com 1.10,2013-04-27 21:08:00,
2013-04-27 17:23:00,69.2,32.0,30.22,West,274,1.0,5.0,25,0.00,,,0.00,weatherlink.com 1.10,2013-04-27 21:23:00,
2013-04-27 17:38:00,69.9,34.0,30.21,SSW,211,2.0,6.0,27,0.00,,,0.00,weatherlink.com 1.10,2013-04-27 21:38:00,
2013-04-27 17:53:00,69.5,33.0,30.21,SSW,208,0.0,6.0,26,0.00,,,0.00,weatherlink.com 1.10,2013-04-27 21:53:00,
2013-04-27 18:10:00,69.6,34.0,30.21,NW,322,2.0,5.0,27,0.00,,,0.00,weatherlink.com 1.10,2013-04-27 22:10:00,
2013-04-27 18:25:00,69.3,34.0,30.20,WNW,287,1.0,6.0,27,0.00,,,0.00,weatherlink.com 1.10,2013-04-27 22:25:00,
2013-04-27 18:40:00,69.5,33.0,30.20,WSW,249,0.0,5.0,26,0.00,,,0.00,weatherlink.com 1.10,2013-04-27 22:40:00,
2013-04-27 18:55:00,70.3,34.0,30.20,WNW,300,2.0,3.0,26,0.00,,,0.00,weatherlink.com 1.10,2013-04-27 22:55:00,
2013-04-27 19:10:00,69.8,33.0,30.19,West,267,0.0,2.0,26,0.00,,,0.00,weatherlink.com 1.10,2013-04-27 23:10:00,
2013-04-27 19:25:00,68.9,33.0,30.19,NE,47,1.0,3.0,27,0.00,,,0.00,weatherlink.com 1.10,2013-04-27 23:25:00,
2013-04-27 19:40:00,67.1,40.0,30.18,NE,37,5.0,5.0,37,0.00,,,0.00,weatherlink.com 1.10,2013-04-27 23:40:00,
2013-04-27 19:54:00,64.5,43.0,30.18,NE,49,3.0,7.0,46,0.00,,,0.00,weatherlink.com 1.10,2013-04-27 23:54:00,
2013-04-27 20:10:00,62.7,43.0,30.18,NNE,22,1.0,3.0,49,0.00,,,0.00,weatherlink.com 1.10,2013-04-28 00:10:00,
2013-04-27 20:25:00,61.4,43.0,30.18,NE,46,0.0,2.0,51,0.00,,,0.00,weatherlink.com 1.10,2013-04-28 00:25:00,
2013-04-27 20:39:00,60.8,42.0,30.18,ENE,67,1.0,4.0,51,0.00,,,0.00,weatherlink.com 1.10,2013-04-28 00:39:00,
2013-04-27 20:55:00,60.2,42.0,30.18,NE,40,2.0,4.0,52,0.00,,,0.00,weatherlink.com 1.10,2013-04-28 00:55:00,
2013-04-27 21:10:00,59.4,42.0,30.18,ENE,72,1.0,3.0,53,0.00,,,0.00,weatherlink.com 1.10,2013-04-28 01:10:00,
2013-04-27 21:24:00,59.0,42.0,30.18,ENE,69,2.0,3.0,54,0.00,,,0.00,weatherlink.com 1.10,2013-04-28 01:24:00,
2013-04-27 21:40:00,58.6,42.0,30.18,ENE,74,2.0,4.0,54,0.00,,,0.00,weatherlink.com 1.10,2013-04-28 01:40:00,
2013-04-27 21:55:00,58.4,42.0,30.18,ENE,58,3.0,5.0,54,0.00,,,0.00,weatherlink.com 1.10,2013-04-28 01:55:00,
2013-04-27 22:10:00,58.0,41.0,30.18,ENE,72,3.0,5.0,54,0.00,,,0.00,weatherlink.com 1.10,2013-04-28 02:10:00,
2013-04-27 22:24:00,57.6,41.0,30.17,ENE,72,1.0,3.0,55,0.00,,,0.00,weatherlink.com 1.10,2013-04-28 02:24:00,
2013-04-27 22:40:00,57.1,41.0,30.17,ENE,68,2.0,2.0,55,0.00,,,0.00,weatherlink.com 1.10,2013-04-28 02:40:00,
2013-04-27 22:55:00,56.6,41.0,30.17,ENE,71,2.0,3.0,56,0.00,,,0.00,weatherlink.com 1.10,2013-04-28 02:55:00,
2013-04-27 23:10:00,56.6,40.0,30.16,East,79,2.0,4.0,55,0.00,,,0.00,weatherlink.com 1.10,2013-04-28 03:10:00,
2013-04-27 23:24:00,56.7,40.0,30.16,East,80,4.0,6.0,55,0.00,,,0.00,weatherlink.com 1.10,2013-04-28 03:24:00,
2013-04-27 23:39:00,56.4,40.0,30.16,East,90,2.0,3.0,55,0.00,,,0.00,weatherlink.com 1.10,2013-04-28 03:39:00,
2013-04-27 23:54:00,56.1,40.0,30.16,East,86,2.0,4.0,55,0.00,,,0.00,weatherlink.com 1.10,2013-04-28 03:54:00,